sensor_id;sensor_type;location;lat;lon;timestamp;P1;durP1;ratioP1;P2;durP2;ratioP2
18983;SDS011;9626;52.552;13.436;2022-08-11T00:00:11;5.65;;;2.13;;
18983;SDS011;9626;52.552;13.436;2022-08-11T00:02:45;3.75;;;2.15;;
18983;SDS011;9626;52.552;13.436;2022-08-11T00:05:15;3.40;;;1.95;;
18983;SDS011;9626;52.552;13.436;2022-08-11T00:07:50;5.05;;;1.63;;
18983;SDS011;9626;52.552;13.436;2022-08-11T00:10:19;4.18;;;1.65;;
18983;SDS011;9626;52.552;13.436;2022-08-11T00:12:58;5.57;;;2.00;;
18983;SDS011;9626;52.552;13.436;2022-08-11T00:15:26;2.35;;;1.70;;
18983;SDS011;9626;52.552;13.436;2022-08-11T00:18:01;5.38;;;1.85;;
18983;SDS011;9626;52.552;13.436;2022-08-11T00:20:29;6.05;;;1.67;;
18983;SDS011;9626;52.552;13.436;2022-08-11T00:23:05;7.05;;;1.92;;
18983;SDS011;9626;52.552;13.436;2022-08-11T00:25:36;2.92;;;1.80;;
18983;SDS011;9626;52.552;13.436;2022-08-11T00:28:03;3.85;;;1.75;;
18983;SDS011;9626;52.552;13.436;2022-08-11T00:30:39;4.50;;;2.08;;
18983;SDS011;9626;52.552;13.436;2022-08-11T00:33:05;4.93;;;1.80;;
18983;SDS011;9626;52.552;13.436;2022-08-11T00:35:31;4.87;;;2.07;;
18983;SDS011;9626;52.552;13.436;2022-08-11T00:37:58;5.35;;;1.60;;
18983;SDS011;9626;52.552;13.436;2022-08-11T00:40:32;7.10;;;2.00;;
18983;SDS011;9626;52.552;13.436;2022-08-11T00:43:19;5.60;;;2.40;;
18983;SDS011;9626;52.552;13.436;2022-08-11T00:46:10;2.70;;;1.70;;
18983;SDS011;9626;52.552;13.436;2022-08-11T00:48:54;4.10;;;2.03;;
18983;SDS011;9626;52.552;13.436;2022-08-11T00:54:07;1.60;;;1.50;;
18983;SDS011;9626;52.552;13.436;2022-08-11T01:02:15;3.30;;;1.87;;
18983;SDS011;9626;52.552;13.436;2022-08-11T01:05:13;2.90;;;1.67;;
18983;SDS011;9626;52.552;13.436;2022-08-11T01:08:06;3.83;;;2.10;;
18983;SDS011;9626;52.552;13.436;2022-08-11T01:18:58;9.47;;;2.07;;
18983;SDS011;9626;52.552;13.436;2022-08-11T01:34:05;2.33;;;1.90;;
18983;SDS011;9626;52.552;13.436;2022-08-11T01:36:59;6.83;;;2.30;;
18983;SDS011;9626;52.552;13.436;2022-08-11T01:59:00;5.17;;;2.60;;
18983;SDS011;9626;52.552;13.436;2022-08-11T02:10:20;6.57;;;3.23;;
18983;SDS011;9626;52.552;13.436;2022-08-11T02:13:23;7.93;;;3.23;;
18983;SDS011;9626;52.552;13.436;2022-08-11T02:16:07;7.47;;;3.43;;
18983;SDS011;9626;52.552;13.436;2022-08-11T02:18:43;5.63;;;3.40;;
18983;SDS011;9626;52.552;13.436;2022-08-11T02:21:44;4.97;;;3.30;;
18983;SDS011;9626;52.552;13.436;2022-08-11T02:24:40;4.93;;;3.23;;
18983;SDS011;9626;52.552;13.436;2022-08-11T02:27:23;3.40;;;2.97;;
18983;SDS011;9626;52.552;13.436;2022-08-11T02:30:05;4.97;;;2.97;;
18983;SDS011;9626;52.552;13.436;2022-08-11T02:32:40;5.50;;;2.60;;
18983;SDS011;9626;52.552;13.436;2022-08-11T02:35:50;6.70;;;2.80;;
18983;SDS011;9626;52.552;13.436;2022-08-11T02:41:09;8.23;;;3.30;;
18983;SDS011;9626;52.552;13.436;2022-08-11T02:53:02;6.97;;;4.60;;
18983;SDS011;9626;52.552;13.436;2022-08-11T03:01:42;8.27;;;3.97;;
18983;SDS011;9626;52.552;13.436;2022-08-11T03:04:17;8.27;;;4.33;;
18983;SDS011;9626;52.552;13.436;2022-08-11T03:09:29;5.57;;;3.77;;
18983;SDS011;9626;52.552;13.436;2022-08-11T03:12:05;9.90;;;4.40;;
18983;SDS011;9626;52.552;13.436;2022-08-11T03:14:57;9.40;;;3.43;;
18983;SDS011;9626;52.552;13.436;2022-08-11T03:23:49;6.37;;;3.10;;
18983;SDS011;9626;52.552;13.436;2022-08-11T03:30:00;5.73;;;3.43;;
18983;SDS011;9626;52.552;13.436;2022-08-11T03:32:41;4.90;;;2.93;;
18983;SDS011;9626;52.552;13.436;2022-08-11T03:35:36;6.80;;;3.40;;
18983;SDS011;9626;52.552;13.436;2022-08-11T03:38:10;7.40;;;3.70;;
18983;SDS011;9626;52.552;13.436;2022-08-11T03:52:27;6.40;;;3.03;;
18983;SDS011;9626;52.552;13.436;2022-08-11T04:03:30;5.33;;;3.70;;
18983;SDS011;9626;52.552;13.436;2022-08-11T04:06:27;9.43;;;3.93;;
18983;SDS011;9626;52.552;13.436;2022-08-11T04:52:33;5.70;;;3.60;;
18983;SDS011;9626;52.552;13.436;2022-08-11T05:10:35;11.23;;;3.70;;
18983;SDS011;9626;52.552;13.436;2022-08-11T05:13:35;10.63;;;4.00;;
18983;SDS011;9626;52.552;13.436;2022-08-11T05:16:41;7.17;;;3.63;;
18983;SDS011;9626;52.552;13.436;2022-08-11T05:19:33;14.10;;;4.77;;
18983;SDS011;9626;52.552;13.436;2022-08-11T05:22:19;11.27;;;3.40;;
18983;SDS011;9626;52.552;13.436;2022-08-11T05:25:08;9.63;;;3.43;;
18983;SDS011;9626;52.552;13.436;2022-08-11T05:30:40;8.33;;;4.13;;
18983;SDS011;9626;52.552;13.436;2022-08-11T05:33:35;8.63;;;3.90;;
18983;SDS011;9626;52.552;13.436;2022-08-11T05:39:11;9.60;;;4.40;;
18983;SDS011;9626;52.552;13.436;2022-08-11T05:42:00;7.43;;;3.87;;
18983;SDS011;9626;52.552;13.436;2022-08-11T05:44:50;11.50;;;4.23;;
18983;SDS011;9626;52.552;13.436;2022-08-11T05:47:38;10.80;;;3.67;;
18983;SDS011;9626;52.552;13.436;2022-08-11T05:50:24;11.83;;;4.10;;
18983;SDS011;9626;52.552;13.436;2022-08-11T05:53:09;11.97;;;4.30;;
18983;SDS011;9626;52.552;13.436;2022-08-11T05:55:56;10.87;;;4.17;;
18983;SDS011;9626;52.552;13.436;2022-08-11T05:58:42;7.40;;;4.27;;
18983;SDS011;9626;52.552;13.436;2022-08-11T06:01:12;8.30;;;4.10;;
18983;SDS011;9626;52.552;13.436;2022-08-11T06:03:44;9.60;;;4.23;;
18983;SDS011;9626;52.552;13.436;2022-08-11T06:06:34;6.83;;;4.27;;
18983;SDS011;9626;52.552;13.436;2022-08-11T06:09:01;8.80;;;5.70;;
18983;SDS011;9626;52.552;13.436;2022-08-11T06:11:27;11.30;;;4.80;;
18983;SDS011;9626;52.552;13.436;2022-08-11T06:13:56;10.40;;;3.90;;
18983;SDS011;9626;52.552;13.436;2022-08-11T06:16:24;9.93;;;4.00;;
18983;SDS011;9626;52.552;13.436;2022-08-11T06:18:52;6.07;;;4.20;;
18983;SDS011;9626;52.552;13.436;2022-08-11T06:21:18;7.43;;;4.60;;
18983;SDS011;9626;52.552;13.436;2022-08-11T06:23:46;9.97;;;4.30;;
18983;SDS011;9626;52.552;13.436;2022-08-11T06:26:12;8.93;;;4.50;;
18983;SDS011;9626;52.552;13.436;2022-08-11T06:28:40;8.13;;;4.57;;
18983;SDS011;9626;52.552;13.436;2022-08-11T06:31:16;11.17;;;4.70;;
18983;SDS011;9626;52.552;13.436;2022-08-11T06:39:56;11.52;;;4.38;;
18983;SDS011;9626;52.552;13.436;2022-08-11T06:45:24;9.50;;;4.40;;
18983;SDS011;9626;52.552;13.436;2022-08-11T06:47:54;16.45;;;4.15;;
18983;SDS011;9626;52.552;13.436;2022-08-11T06:50:25;5.80;;;4.10;;
18983;SDS011;9626;52.552;13.436;2022-08-11T06:53:10;8.20;;;3.45;;
18983;SDS011;9626;52.552;13.436;2022-08-11T06:55:40;11.48;;;4.07;;
18983;SDS011;9626;52.552;13.436;2022-08-11T06:58:27;9.77;;;3.28;;
18983;SDS011;9626;52.552;13.436;2022-08-11T07:01:16;10.60;;;3.42;;
18983;SDS011;9626;52.552;13.436;2022-08-11T07:03:53;6.60;;;3.95;;
18983;SDS011;9626;52.552;13.436;2022-08-11T07:12:46;9.05;;;4.68;;
18983;SDS011;9626;52.552;13.436;2022-08-11T07:15:35;11.77;;;4.07;;
18983;SDS011;9626;52.552;13.436;2022-08-11T07:18:12;6.63;;;3.88;;
18983;SDS011;9626;52.552;13.436;2022-08-11T07:21:22;7.00;;;5.30;;
18983;SDS011;9626;52.552;13.436;2022-08-11T07:24:16;8.05;;;3.33;;
18983;SDS011;9626;52.552;13.436;2022-08-11T07:27:05;4.93;;;3.45;;
18983;SDS011;9626;52.552;13.436;2022-08-11T07:29:54;8.43;;;3.65;;
18983;SDS011;9626;52.552;13.436;2022-08-11T07:32:32;6.43;;;3.63;;
18983;SDS011;9626;52.552;13.436;2022-08-11T07:35:12;10.80;;;3.85;;
18983;SDS011;9626;52.552;13.436;2022-08-11T07:37:42;5.55;;;3.58;;
18983;SDS011;9626;52.552;13.436;2022-08-11T07:40:12;8.27;;;3.22;;
18983;SDS011;9626;52.552;13.436;2022-08-11T07:42:38;8.07;;;3.10;;
18983;SDS011;9626;52.552;13.436;2022-08-11T07:45:10;8.55;;;4.18;;
18983;SDS011;9626;52.552;13.436;2022-08-11T07:47:56;5.68;;;2.72;;
18983;SDS011;9626;52.552;13.436;2022-08-11T07:50:41;8.50;;;3.53;;
18983;SDS011;9626;52.552;13.436;2022-08-11T07:53:27;5.80;;;3.05;;
18983;SDS011;9626;52.552;13.436;2022-08-11T07:55:55;7.90;;;3.22;;
18983;SDS011;9626;52.552;13.436;2022-08-11T07:58:24;9.23;;;3.80;;
18983;SDS011;9626;52.552;13.436;2022-08-11T08:01:10;8.50;;;3.42;;
18983;SDS011;9626;52.552;13.436;2022-08-11T08:04:00;4.60;;;3.05;;
18983;SDS011;9626;52.552;13.436;2022-08-11T08:06:44;6.25;;;3.33;;
18983;SDS011;9626;52.552;13.436;2022-08-11T08:09:31;3.70;;;2.78;;
18983;SDS011;9626;52.552;13.436;2022-08-11T08:12:16;5.20;;;2.50;;
18983;SDS011;9626;52.552;13.436;2022-08-11T08:15:05;8.82;;;3.10;;
18983;SDS011;9626;52.552;13.436;2022-08-11T08:17:51;10.75;;;5.03;;
18983;SDS011;9626;52.552;13.436;2022-08-11T08:20:27;9.38;;;3.25;;
18983;SDS011;9626;52.552;13.436;2022-08-11T08:22:56;7.03;;;4.18;;
18983;SDS011;9626;52.552;13.436;2022-08-11T08:25:24;5.20;;;3.70;;
18983;SDS011;9626;52.552;13.436;2022-08-11T08:27:51;10.57;;;4.32;;
18983;SDS011;9626;52.552;13.436;2022-08-11T08:30:18;6.47;;;2.65;;
18983;SDS011;9626;52.552;13.436;2022-08-11T08:33:03;9.02;;;3.70;;
18983;SDS011;9626;52.552;13.436;2022-08-11T08:35:29;5.45;;;3.22;;
18983;SDS011;9626;52.552;13.436;2022-08-11T08:37:56;9.38;;;2.50;;
18983;SDS011;9626;52.552;13.436;2022-08-11T08:40:24;6.28;;;2.63;;
18983;SDS011;9626;52.552;13.436;2022-08-11T08:42:57;5.47;;;2.70;;
18983;SDS011;9626;52.552;13.436;2022-08-11T08:45:27;5.22;;;2.45;;
18983;SDS011;9626;52.552;13.436;2022-08-11T08:47:57;9.95;;;2.90;;
18983;SDS011;9626;52.552;13.436;2022-08-11T08:50:24;3.28;;;2.20;;
18983;SDS011;9626;52.552;13.436;2022-08-11T08:53:16;5.88;;;2.78;;
18983;SDS011;9626;52.552;13.436;2022-08-11T08:55:46;10.70;;;3.47;;
18983;SDS011;9626;52.552;13.436;2022-08-11T08:58:14;8.57;;;3.15;;
18983;SDS011;9626;52.552;13.436;2022-08-11T09:00:43;5.25;;;3.72;;
18983;SDS011;9626;52.552;13.436;2022-08-11T09:03:11;4.90;;;2.80;;
18983;SDS011;9626;52.552;13.436;2022-08-11T09:05:38;6.60;;;2.53;;
18983;SDS011;9626;52.552;13.436;2022-08-11T09:08:04;6.38;;;2.38;;
18983;SDS011;9626;52.552;13.436;2022-08-11T09:10:31;8.23;;;3.90;;
18983;SDS011;9626;52.552;13.436;2022-08-11T09:12:58;4.50;;;2.55;;
18983;SDS011;9626;52.552;13.436;2022-08-11T09:15:25;7.90;;;2.65;;
18983;SDS011;9626;52.552;13.436;2022-08-11T09:17:53;3.95;;;2.10;;
18983;SDS011;9626;52.552;13.436;2022-08-11T09:20:27;5.35;;;2.33;;
18983;SDS011;9626;52.552;13.436;2022-08-11T09:22:58;5.18;;;2.53;;
18983;SDS011;9626;52.552;13.436;2022-08-11T09:25:46;9.35;;;2.85;;
18983;SDS011;9626;52.552;13.436;2022-08-11T09:28:32;4.55;;;2.42;;
18983;SDS011;9626;52.552;13.436;2022-08-11T09:30:59;4.65;;;2.20;;
18983;SDS011;9626;52.552;13.436;2022-08-11T09:33:27;4.15;;;2.17;;
18983;SDS011;9626;52.552;13.436;2022-08-11T09:35:54;3.55;;;2.33;;
18983;SDS011;9626;52.552;13.436;2022-08-11T09:38:22;7.10;;;2.08;;
18983;SDS011;9626;52.552;13.436;2022-08-11T09:41:09;4.95;;;2.10;;
18983;SDS011;9626;52.552;13.436;2022-08-11T09:43:42;5.38;;;2.55;;
18983;SDS011;9626;52.552;13.436;2022-08-11T09:46:28;5.22;;;2.60;;
18983;SDS011;9626;52.552;13.436;2022-08-11T09:48:56;4.88;;;2.65;;
18983;SDS011;9626;52.552;13.436;2022-08-11T09:51:25;5.82;;;2.25;;
18983;SDS011;9626;52.552;13.436;2022-08-11T09:53:55;9.05;;;3.28;;
18983;SDS011;9626;52.552;13.436;2022-08-11T09:56:24;3.58;;;2.42;;
18983;SDS011;9626;52.552;13.436;2022-08-11T09:59:10;5.32;;;2.70;;
18983;SDS011;9626;52.552;13.436;2022-08-11T10:01:37;4.40;;;2.25;;
18983;SDS011;9626;52.552;13.436;2022-08-11T10:04:16;8.43;;;2.95;;
18983;SDS011;9626;52.552;13.436;2022-08-11T10:06:51;6.10;;;2.38;;
18983;SDS011;9626;52.552;13.436;2022-08-11T10:09:28;5.05;;;2.38;;
18983;SDS011;9626;52.552;13.436;2022-08-11T10:12:09;4.38;;;2.20;;
18983;SDS011;9626;52.552;13.436;2022-08-11T10:14:43;4.05;;;1.98;;
18983;SDS011;9626;52.552;13.436;2022-08-11T10:17:29;5.45;;;2.33;;
18983;SDS011;9626;52.552;13.436;2022-08-11T10:19:59;3.97;;;2.28;;
18983;SDS011;9626;52.552;13.436;2022-08-11T10:22:27;3.60;;;2.10;;
18983;SDS011;9626;52.552;13.436;2022-08-11T10:25:12;3.85;;;2.25;;
18983;SDS011;9626;52.552;13.436;2022-08-11T10:27:57;8.18;;;2.35;;
18983;SDS011;9626;52.552;13.436;2022-08-11T10:30:25;4.57;;;2.20;;
18983;SDS011;9626;52.552;13.436;2022-08-11T10:33:28;10.45;;;2.10;;
18983;SDS011;9626;52.552;13.436;2022-08-11T10:36:13;3.03;;;2.22;;
18983;SDS011;9626;52.552;13.436;2022-08-11T10:38:38;4.00;;;2.22;;
18983;SDS011;9626;52.552;13.436;2022-08-11T10:41:04;5.25;;;2.13;;
18983;SDS011;9626;52.552;13.436;2022-08-11T10:43:48;3.63;;;2.15;;
18983;SDS011;9626;52.552;13.436;2022-08-11T10:46:16;4.45;;;2.30;;
18983;SDS011;9626;52.552;13.436;2022-08-11T10:49:02;5.47;;;2.53;;
18983;SDS011;9626;52.552;13.436;2022-08-11T10:51:28;3.55;;;2.08;;
18983;SDS011;9626;52.552;13.436;2022-08-11T10:54:15;3.42;;;2.63;;
18983;SDS011;9626;52.552;13.436;2022-08-11T10:57:00;5.18;;;2.35;;
18983;SDS011;9626;52.552;13.436;2022-08-11T10:59:45;3.85;;;2.03;;
18983;SDS011;9626;52.552;13.436;2022-08-11T11:02:12;3.50;;;1.90;;
18983;SDS011;9626;52.552;13.436;2022-08-11T11:07:23;6.80;;;2.70;;
18983;SDS011;9626;52.552;13.436;2022-08-11T11:10:10;5.22;;;2.42;;
18983;SDS011;9626;52.552;13.436;2022-08-11T11:15:24;7.05;;;2.40;;
18983;SDS011;9626;52.552;13.436;2022-08-11T11:18:14;8.40;;;2.20;;
18983;SDS011;9626;52.552;13.436;2022-08-11T11:21:02;2.50;;;2.30;;
18983;SDS011;9626;52.552;13.436;2022-08-11T11:23:39;3.38;;;2.45;;
18983;SDS011;9626;52.552;13.436;2022-08-11T11:31:33;3.60;;;2.05;;
18983;SDS011;9626;52.552;13.436;2022-08-11T11:36:50;6.00;;;2.22;;
18983;SDS011;9626;52.552;13.436;2022-08-11T11:39:22;4.05;;;2.15;;
18983;SDS011;9626;52.552;13.436;2022-08-11T11:41:50;6.63;;;2.10;;
18983;SDS011;9626;52.552;13.436;2022-08-11T11:44:19;6.60;;;2.10;;
18983;SDS011;9626;52.552;13.436;2022-08-11T11:46:47;2.70;;;2.30;;
18983;SDS011;9626;52.552;13.436;2022-08-11T11:49:15;7.30;;;2.10;;
18983;SDS011;9626;52.552;13.436;2022-08-11T11:51:43;5.72;;;1.80;;
18983;SDS011;9626;52.552;13.436;2022-08-11T11:54:13;3.67;;;1.80;;
18983;SDS011;9626;52.552;13.436;2022-08-11T11:56:58;6.45;;;2.10;;
18983;SDS011;9626;52.552;13.436;2022-08-11T11:59:47;4.43;;;2.00;;
18983;SDS011;9626;52.552;13.436;2022-08-11T12:02:32;2.78;;;1.70;;
18983;SDS011;9626;52.552;13.436;2022-08-11T12:05:00;8.60;;;2.58;;
18983;SDS011;9626;52.552;13.436;2022-08-11T12:07:26;3.67;;;2.47;;
18983;SDS011;9626;52.552;13.436;2022-08-11T12:10:11;3.70;;;2.00;;
18983;SDS011;9626;52.552;13.436;2022-08-11T12:12:37;4.68;;;2.55;;
18983;SDS011;9626;52.552;13.436;2022-08-11T12:15:22;3.55;;;2.20;;
18983;SDS011;9626;52.552;13.436;2022-08-11T12:17:48;5.47;;;2.17;;
18983;SDS011;9626;52.552;13.436;2022-08-11T12:20:15;5.90;;;2.40;;
18983;SDS011;9626;52.552;13.436;2022-08-11T12:22:43;5.10;;;2.25;;
18983;SDS011;9626;52.552;13.436;2022-08-11T12:25:28;3.20;;;2.00;;
18983;SDS011;9626;52.552;13.436;2022-08-11T12:28:13;4.95;;;2.05;;
18983;SDS011;9626;52.552;13.436;2022-08-11T12:30:39;6.97;;;2.00;;
18983;SDS011;9626;52.552;13.436;2022-08-11T12:33:06;1.67;;;1.58;;
18983;SDS011;9626;52.552;13.436;2022-08-11T12:35:32;7.40;;;2.20;;
18983;SDS011;9626;52.552;13.436;2022-08-11T12:38:01;6.82;;;3.13;;
18983;SDS011;9626;52.552;13.436;2022-08-11T12:40:29;6.55;;;3.08;;
18983;SDS011;9626;52.552;13.436;2022-08-11T12:43:18;10.85;;;2.58;;
18983;SDS011;9626;52.552;13.436;2022-08-11T12:49:09;6.57;;;2.67;;
18983;SDS011;9626;52.552;13.436;2022-08-11T12:51:56;2.95;;;2.38;;
18983;SDS011;9626;52.552;13.436;2022-08-11T12:54:32;4.47;;;2.10;;
18983;SDS011;9626;52.552;13.436;2022-08-11T12:57:07;8.05;;;2.70;;
18983;SDS011;9626;52.552;13.436;2022-08-11T12:59:54;5.45;;;2.45;;
18983;SDS011;9626;52.552;13.436;2022-08-11T13:02:40;5.18;;;2.10;;
18983;SDS011;9626;52.552;13.436;2022-08-11T13:05:24;6.18;;;1.98;;
18983;SDS011;9626;52.552;13.436;2022-08-11T13:07:50;6.32;;;2.22;;
18983;SDS011;9626;52.552;13.436;2022-08-11T13:10:16;5.78;;;1.88;;
18983;SDS011;9626;52.552;13.436;2022-08-11T13:13:03;10.48;;;2.55;;
18983;SDS011;9626;52.552;13.436;2022-08-11T13:15:31;8.52;;;2.30;;
18983;SDS011;9626;52.552;13.436;2022-08-11T13:17:57;5.20;;;2.08;;
18983;SDS011;9626;52.552;13.436;2022-08-11T13:20:24;6.13;;;2.03;;
18983;SDS011;9626;52.552;13.436;2022-08-11T13:22:52;3.20;;;1.50;;
18983;SDS011;9626;52.552;13.436;2022-08-11T13:25:21;2.80;;;1.88;;
18983;SDS011;9626;52.552;13.436;2022-08-11T13:27:49;6.25;;;1.75;;
18983;SDS011;9626;52.552;13.436;2022-08-11T13:30:18;4.53;;;1.75;;
18983;SDS011;9626;52.552;13.436;2022-08-11T13:33:05;10.63;;;1.75;;
18983;SDS011;9626;52.552;13.436;2022-08-11T13:35:32;5.43;;;1.83;;
18983;SDS011;9626;52.552;13.436;2022-08-11T13:38:02;2.03;;;1.63;;
18983;SDS011;9626;52.552;13.436;2022-08-11T13:40:29;2.42;;;1.55;;
18983;SDS011;9626;52.552;13.436;2022-08-11T13:42:56;3.90;;;1.60;;
18983;SDS011;9626;52.552;13.436;2022-08-11T13:45:24;3.03;;;1.80;;
18983;SDS011;9626;52.552;13.436;2022-08-11T13:47:51;4.15;;;2.08;;
18983;SDS011;9626;52.552;13.436;2022-08-11T13:50:19;4.78;;;1.88;;
18983;SDS011;9626;52.552;13.436;2022-08-11T13:52:46;4.28;;;1.90;;
18983;SDS011;9626;52.552;13.436;2022-08-11T13:55:14;4.53;;;2.20;;
18983;SDS011;9626;52.552;13.436;2022-08-11T13:57:56;2.92;;;1.98;;
18983;SDS011;9626;52.552;13.436;2022-08-11T14:00:21;4.38;;;2.00;;
18983;SDS011;9626;52.552;13.436;2022-08-11T14:02:48;5.43;;;1.77;;
18983;SDS011;9626;52.552;13.436;2022-08-11T14:05:16;7.40;;;2.17;;
18983;SDS011;9626;52.552;13.436;2022-08-11T14:07:48;4.28;;;1.70;;
18983;SDS011;9626;52.552;13.436;2022-08-11T14:10:16;7.90;;;1.63;;
18983;SDS011;9626;52.552;13.436;2022-08-11T14:12:56;4.43;;;1.95;;
18983;SDS011;9626;52.552;13.436;2022-08-11T14:15:44;4.07;;;1.30;;
18983;SDS011;9626;52.552;13.436;2022-08-11T14:18:25;8.43;;;2.00;;
18983;SDS011;9626;52.552;13.436;2022-08-11T14:20:57;3.70;;;1.60;;
18983;SDS011;9626;52.552;13.436;2022-08-11T14:23:45;2.53;;;1.50;;
18983;SDS011;9626;52.552;13.436;2022-08-11T14:26:17;2.33;;;1.30;;
18983;SDS011;9626;52.552;13.436;2022-08-11T14:28:51;3.45;;;1.42;;
18983;SDS011;9626;52.552;13.436;2022-08-11T14:31:19;3.22;;;1.63;;
18983;SDS011;9626;52.552;13.436;2022-08-11T14:33:47;4.43;;;1.58;;
18983;SDS011;9626;52.552;13.436;2022-08-11T14:36:14;8.48;;;1.40;;
18983;SDS011;9626;52.552;13.436;2022-08-11T14:38:41;4.68;;;1.55;;
18983;SDS011;9626;52.552;13.436;2022-08-11T14:41:07;7.07;;;1.55;;
18983;SDS011;9626;52.552;13.436;2022-08-11T14:43:54;4.75;;;1.70;;
18983;SDS011;9626;52.552;13.436;2022-08-11T14:46:40;3.33;;;1.15;;
18983;SDS011;9626;52.552;13.436;2022-08-11T14:49:27;5.75;;;1.60;;
18983;SDS011;9626;52.552;13.436;2022-08-11T14:51:54;5.00;;;1.40;;
18983;SDS011;9626;52.552;13.436;2022-08-11T14:54:25;3.75;;;1.60;;
18983;SDS011;9626;52.552;13.436;2022-08-11T14:57:12;5.60;;;1.60;;
18983;SDS011;9626;52.552;13.436;2022-08-11T14:59:38;4.50;;;1.42;;
18983;SDS011;9626;52.552;13.436;2022-08-11T15:02:05;5.43;;;1.30;;
18983;SDS011;9626;52.552;13.436;2022-08-11T15:04:50;2.15;;;1.25;;
18983;SDS011;9626;52.552;13.436;2022-08-11T15:07:16;3.38;;;1.00;;
18983;SDS011;9626;52.552;13.436;2022-08-11T15:09:42;2.40;;;1.38;;
18983;SDS011;9626;52.552;13.436;2022-08-11T15:12:09;4.13;;;1.40;;
18983;SDS011;9626;52.552;13.436;2022-08-11T15:14:43;3.05;;;1.60;;
18983;SDS011;9626;52.552;13.436;2022-08-11T15:17:29;2.78;;;1.83;;
18983;SDS011;9626;52.552;13.436;2022-08-11T15:19:57;4.32;;;1.50;;
18983;SDS011;9626;52.552;13.436;2022-08-11T15:22:44;6.15;;;1.80;;
18983;SDS011;9626;52.552;13.436;2022-08-11T15:25:28;2.15;;;1.20;;
18983;SDS011;9626;52.552;13.436;2022-08-11T15:27:55;6.22;;;2.20;;
18983;SDS011;9626;52.552;13.436;2022-08-11T15:30:41;2.90;;;1.63;;
18983;SDS011;9626;52.552;13.436;2022-08-11T15:33:27;5.47;;;1.60;;
18983;SDS011;9626;52.552;13.436;2022-08-11T15:36:14;6.65;;;1.40;;
18983;SDS011;9626;52.552;13.436;2022-08-11T15:39:02;5.82;;;1.27;;
18983;SDS011;9626;52.552;13.436;2022-08-11T15:41:53;4.13;;;1.52;;
18983;SDS011;9626;52.552;13.436;2022-08-11T15:44:42;8.90;;;3.67;;
18983;SDS011;9626;52.552;13.436;2022-08-11T15:47:37;3.50;;;1.77;;
18983;SDS011;9626;52.552;13.436;2022-08-11T15:50:06;3.45;;;1.60;;
18983;SDS011;9626;52.552;13.436;2022-08-11T15:52:40;1.35;;;1.20;;
18983;SDS011;9626;52.552;13.436;2022-08-11T15:55:11;3.47;;;2.33;;
18983;SDS011;9626;52.552;13.436;2022-08-11T15:57:37;7.30;;;1.77;;
18983;SDS011;9626;52.552;13.436;2022-08-11T16:00:28;1.33;;;1.23;;
18983;SDS011;9626;52.552;13.436;2022-08-11T16:03:12;8.85;;;1.55;;
18983;SDS011;9626;52.552;13.436;2022-08-11T16:05:57;4.80;;;1.30;;
18983;SDS011;9626;52.552;13.436;2022-08-11T16:08:23;5.72;;;1.40;;
18983;SDS011;9626;52.552;13.436;2022-08-11T16:10:50;2.28;;;1.25;;
18983;SDS011;9626;52.552;13.436;2022-08-11T16:13:20;1.85;;;1.40;;
18983;SDS011;9626;52.552;13.436;2022-08-11T16:15:48;6.72;;;1.27;;
18983;SDS011;9626;52.552;13.436;2022-08-11T16:18:37;4.13;;;1.20;;
18983;SDS011;9626;52.552;13.436;2022-08-11T16:21:07;3.08;;;1.42;;
18983;SDS011;9626;52.552;13.436;2022-08-11T16:23:37;3.65;;;1.25;;
18983;SDS011;9626;52.552;13.436;2022-08-11T16:26:05;5.10;;;1.70;;
18983;SDS011;9626;52.552;13.436;2022-08-11T16:28:33;3.42;;;1.30;;
18983;SDS011;9626;52.552;13.436;2022-08-11T16:31:00;5.30;;;1.40;;
18983;SDS011;9626;52.552;13.436;2022-08-11T16:33:27;4.28;;;1.25;;
18983;SDS011;9626;52.552;13.436;2022-08-11T16:35:54;4.18;;;1.40;;
18983;SDS011;9626;52.552;13.436;2022-08-11T16:38:39;8.18;;;1.90;;
18983;SDS011;9626;52.552;13.436;2022-08-11T16:41:12;6.88;;;1.50;;
18983;SDS011;9626;52.552;13.436;2022-08-11T16:44:01;5.53;;;1.55;;
18983;SDS011;9626;52.552;13.436;2022-08-11T16:46:46;2.30;;;1.13;;
18983;SDS011;9626;52.552;13.436;2022-08-11T16:49:47;2.55;;;1.15;;
18983;SDS011;9626;52.552;13.436;2022-08-11T16:52:14;4.43;;;1.77;;
18983;SDS011;9626;52.552;13.436;2022-08-11T16:54:41;3.10;;;1.30;;
18983;SDS011;9626;52.552;13.436;2022-08-11T16:57:09;4.28;;;1.25;;
18983;SDS011;9626;52.552;13.436;2022-08-11T17:00:01;2.05;;;1.48;;
18983;SDS011;9626;52.552;13.436;2022-08-11T17:02:36;3.63;;;1.60;;
18983;SDS011;9626;52.552;13.436;2022-08-11T17:05:24;2.83;;;1.20;;
18983;SDS011;9626;52.552;13.436;2022-08-11T17:08:09;4.88;;;1.50;;
18983;SDS011;9626;52.552;13.436;2022-08-11T17:10:57;3.40;;;1.65;;
18983;SDS011;9626;52.552;13.436;2022-08-11T17:13:46;2.78;;;1.45;;
18983;SDS011;9626;52.552;13.436;2022-08-11T17:16:19;1.85;;;1.38;;
18983;SDS011;9626;52.552;13.436;2022-08-11T17:21:28;4.28;;;1.73;;
18983;SDS011;9626;52.552;13.436;2022-08-11T17:29:19;8.77;;;1.90;;
18983;SDS011;9626;52.552;13.436;2022-08-11T17:31:48;9.52;;;2.28;;
18983;SDS011;9626;52.552;13.436;2022-08-11T17:34:34;4.93;;;1.88;;
18983;SDS011;9626;52.552;13.436;2022-08-11T17:37:18;6.13;;;2.35;;
18983;SDS011;9626;52.552;13.436;2022-08-11T17:39:45;6.18;;;1.95;;
18983;SDS011;9626;52.552;13.436;2022-08-11T17:42:13;7.00;;;2.05;;
18983;SDS011;9626;52.552;13.436;2022-08-11T17:44:58;5.18;;;1.70;;
18983;SDS011;9626;52.552;13.436;2022-08-11T17:47:44;2.40;;;1.70;;
18983;SDS011;9626;52.552;13.436;2022-08-11T17:50:30;3.78;;;1.90;;
18983;SDS011;9626;52.552;13.436;2022-08-11T17:52:58;8.00;;;1.85;;
18983;SDS011;9626;52.552;13.436;2022-08-11T17:55:43;4.80;;;2.03;;
18983;SDS011;9626;52.552;13.436;2022-08-11T17:58:29;2.83;;;1.90;;
18983;SDS011;9626;52.552;13.436;2022-08-11T18:01:14;4.38;;;1.90;;
18983;SDS011;9626;52.552;13.436;2022-08-11T18:03:41;7.70;;;2.00;;
18983;SDS011;9626;52.552;13.436;2022-08-11T18:06:09;5.88;;;1.90;;
18983;SDS011;9626;52.552;13.436;2022-08-11T18:08:38;10.82;;;2.40;;
18983;SDS011;9626;52.552;13.436;2022-08-11T18:11:28;4.47;;;1.92;;
18983;SDS011;9626;52.552;13.436;2022-08-11T18:14:14;10.00;;;2.15;;
18983;SDS011;9626;52.552;13.436;2022-08-11T18:16:59;3.33;;;1.90;;
18983;SDS011;9626;52.552;13.436;2022-08-11T18:19:43;3.33;;;2.15;;
18983;SDS011;9626;52.552;13.436;2022-08-11T18:22:32;4.75;;;2.13;;
18983;SDS011;9626;52.552;13.436;2022-08-11T18:25:22;4.35;;;2.50;;
18983;SDS011;9626;52.552;13.436;2022-08-11T18:28:10;3.80;;;2.22;;
18983;SDS011;9626;52.552;13.436;2022-08-11T18:30:58;5.65;;;2.83;;
18983;SDS011;9626;52.552;13.436;2022-08-11T18:33:47;3.30;;;2.20;;
18983;SDS011;9626;52.552;13.436;2022-08-11T18:36:40;3.60;;;2.25;;
18983;SDS011;9626;52.552;13.436;2022-08-11T18:39:19;3.40;;;2.10;;
18983;SDS011;9626;52.552;13.436;2022-08-11T18:42:07;5.25;;;2.20;;
18983;SDS011;9626;52.552;13.436;2022-08-11T18:44:57;5.63;;;2.63;;
18983;SDS011;9626;52.552;13.436;2022-08-11T18:47:45;3.60;;;1.90;;
18983;SDS011;9626;52.552;13.436;2022-08-11T18:50:31;7.93;;;2.33;;
18983;SDS011;9626;52.552;13.436;2022-08-11T18:53:16;5.43;;;2.10;;
18983;SDS011;9626;52.552;13.436;2022-08-11T18:56:01;4.70;;;2.08;;
18983;SDS011;9626;52.552;13.436;2022-08-11T18:58:46;2.85;;;2.00;;
18983;SDS011;9626;52.552;13.436;2022-08-11T19:01:32;9.35;;;2.15;;
18983;SDS011;9626;52.552;13.436;2022-08-11T19:04:19;4.28;;;1.85;;
18983;SDS011;9626;52.552;13.436;2022-08-11T19:07:05;5.60;;;2.50;;
18983;SDS011;9626;52.552;13.436;2022-08-11T19:09:51;3.90;;;2.15;;
18983;SDS011;9626;52.552;13.436;2022-08-11T19:12:39;3.72;;;2.63;;
18983;SDS011;9626;52.552;13.436;2022-08-11T19:15:25;4.82;;;2.58;;
18983;SDS011;9626;52.552;13.436;2022-08-11T19:18:11;5.00;;;2.45;;